sensor_id;sensor_type;location;lat;lon;timestamp;P1;durP1;ratioP1;P2;durP2;ratioP2
20431;SDS011;10375;49.136;10.366;2023-02-22T00:01:33;10.37;;;5.90;;
20431;SDS011;10375;49.136;10.366;2023-02-22T00:04:02;7.57;;;5.83;;
20431;SDS011;10375;49.136;10.366;2023-02-22T00:06:31;7.20;;;5.73;;
20431;SDS011;10375;49.136;10.366;2023-02-22T00:08:59;12.67;;;7.03;;
20431;SDS011;10375;49.136;10.366;2023-02-22T00:11:27;9.70;;;5.77;;
20431;SDS011;10375;49.136;10.366;2023-02-22T00:13:56;9.60;;;6.07;;
20431;SDS011;10375;49.136;10.366;2023-02-22T00:16:24;10.53;;;6.77;;
20431;SDS011;10375;49.136;10.366;2023-02-22T00:18:52;11.23;;;7.33;;
20431;SDS011;10375;49.136;10.366;2023-02-22T00:21:19;13.37;;;8.27;;
20431;SDS011;10375;49.136;10.366;2023-02-22T00:23:47;11.47;;;7.93;;
20431;SDS011;10375;49.136;10.366;2023-02-22T00:26:16;12.73;;;7.87;;
20431;SDS011;10375;49.136;10.366;2023-02-22T00:28:46;9.83;;;7.10;;
20431;SDS011;10375;49.136;10.366;2023-02-22T00:31:14;10.83;;;7.57;;
20431;SDS011;10375;49.136;10.366;2023-02-22T00:33:43;12.63;;;7.13;;
20431;SDS011;10375;49.136;10.366;2023-02-22T00:36:10;15.00;;;7.43;;
20431;SDS011;10375;49.136;10.366;2023-02-22T00:38:39;11.97;;;6.53;;
20431;SDS011;10375;49.136;10.366;2023-02-22T00:41:06;15.93;;;8.53;;
20431;SDS011;10375;49.136;10.366;2023-02-22T00:43:34;17.23;;;7.83;;
20431;SDS011;10375;49.136;10.366;2023-02-22T00:46:01;15.47;;;9.13;;
20431;SDS011;10375;49.136;10.366;2023-02-22T00:48:28;14.23;;;8.77;;
20431;SDS011;10375;49.136;10.366;2023-02-22T00:50:56;20.07;;;10.53;;
20431;SDS011;10375;49.136;10.366;2023-02-22T00:53:23;19.20;;;10.60;;
20431;SDS011;10375;49.136;10.366;2023-02-22T00:55:51;22.63;;;10.27;;
20431;SDS011;10375;49.136;10.366;2023-02-22T00:58:18;27.47;;;10.47;;
20431;SDS011;10375;49.136;10.366;2023-02-22T01:00:46;37.00;;;10.83;;
20431;SDS011;10375;49.136;10.366;2023-02-22T01:03:15;43.00;;;11.67;;
20431;SDS011;10375;49.136;10.366;2023-02-22T01:05:44;25.73;;;10.70;;
20431;SDS011;10375;49.136;10.366;2023-02-22T01:08:13;23.27;;;8.63;;
20431;SDS011;10375;49.136;10.366;2023-02-22T01:10:41;38.47;;;10.37;;
20431;SDS011;10375;49.136;10.366;2023-02-22T01:13:08;15.43;;;8.77;;
20431;SDS011;10375;49.136;10.366;2023-02-22T01:15:38;22.07;;;10.13;;
20431;SDS011;10375;49.136;10.366;2023-02-22T01:18:08;26.47;;;9.93;;
20431;SDS011;10375;49.136;10.366;2023-02-22T01:20:37;16.47;;;8.70;;
20431;SDS011;10375;49.136;10.366;2023-02-22T01:23:05;21.83;;;9.20;;
20431;SDS011;10375;49.136;10.366;2023-02-22T01:25:33;25.50;;;10.27;;
20431;SDS011;10375;49.136;10.366;2023-02-22T01:28:01;22.30;;;9.43;;
20431;SDS011;10375;49.136;10.366;2023-02-22T01:30:30;18.83;;;9.10;;
20431;SDS011;10375;49.136;10.366;2023-02-22T01:33:00;23.17;;;9.47;;
20431;SDS011;10375;49.136;10.366;2023-02-22T01:35:29;26.03;;;9.80;;
20431;SDS011;10375;49.136;10.366;2023-02-22T01:37:58;37.47;;;9.33;;
20431;SDS011;10375;49.136;10.366;2023-02-22T01:40:30;20.90;;;9.40;;
20431;SDS011;10375;49.136;10.366;2023-02-22T01:43:00;16.97;;;8.07;;
20431;SDS011;10375;49.136;10.366;2023-02-22T01:47:57;35.97;;;9.10;;
20431;SDS011;10375;49.136;10.366;2023-02-22T01:50:32;28.67;;;9.27;;
20431;SDS011;10375;49.136;10.366;2023-02-22T01:53:04;14.43;;;8.30;;
20431;SDS011;10375;49.136;10.366;2023-02-22T01:55:33;14.93;;;8.00;;
20431;SDS011;10375;49.136;10.366;2023-02-22T01:58:01;18.10;;;7.43;;
20431;SDS011;10375;49.136;10.366;2023-02-22T02:00:29;13.47;;;7.03;;
20431;SDS011;10375;49.136;10.366;2023-02-22T02:02:59;16.70;;;7.60;;
20431;SDS011;10375;49.136;10.366;2023-02-22T02:05:28;18.93;;;6.63;;
20431;SDS011;10375;49.136;10.366;2023-02-22T02:07:58;27.50;;;6.73;;
20431;SDS011;10375;49.136;10.366;2023-02-22T02:10:31;25.83;;;6.57;;
20431;SDS011;10375;49.136;10.366;2023-02-22T02:12:59;23.23;;;7.93;;
20431;SDS011;10375;49.136;10.366;2023-02-22T02:15:30;14.37;;;6.73;;
20431;SDS011;10375;49.136;10.366;2023-02-22T02:18:01;28.17;;;7.77;;
20431;SDS011;10375;49.136;10.366;2023-02-22T02:23:12;40.17;;;7.70;;
20431;SDS011;10375;49.136;10.366;2023-02-22T02:33:41;11.93;;;8.07;;
20431;SDS011;10375;49.136;10.366;2023-02-22T02:36:33;8.63;;;6.77;;
20431;SDS011;10375;49.136;10.366;2023-02-22T02:41:41;10.37;;;7.07;;
20431;SDS011;10375;49.136;10.366;2023-02-22T02:44:14;9.70;;;6.63;;
20431;SDS011;10375;49.136;10.366;2023-02-22T02:46:54;7.87;;;6.37;;
20431;SDS011;10375;49.136;10.366;2023-02-22T02:49:30;11.57;;;6.70;;
20431;SDS011;10375;49.136;10.366;2023-02-22T02:52:13;10.10;;;7.10;;
20431;SDS011;10375;49.136;10.366;2023-02-22T02:54:44;9.17;;;6.87;;
20431;SDS011;10375;49.136;10.366;2023-02-22T02:57:12;8.80;;;6.80;;
20431;SDS011;10375;49.136;10.366;2023-02-22T02:59:39;11.47;;;7.20;;
20431;SDS011;10375;49.136;10.366;2023-02-22T03:02:14;8.63;;;6.47;;
20431;SDS011;10375;49.136;10.366;2023-02-22T03:21:33;23.43;;;6.80;;
20431;SDS011;10375;49.136;10.366;2023-02-22T03:24:11;20.57;;;7.27;;
20431;SDS011;10375;49.136;10.366;2023-02-22T03:26:52;23.10;;;6.47;;
20431;SDS011;10375;49.136;10.366;2023-02-22T03:29:29;8.83;;;6.43;;
20431;SDS011;10375;49.136;10.366;2023-02-22T03:32:02;14.83;;;6.77;;
20431;SDS011;10375;49.136;10.366;2023-02-22T03:34:34;32.73;;;6.90;;
20431;SDS011;10375;49.136;10.366;2023-02-22T03:37:07;12.00;;;6.30;;
20431;SDS011;10375;49.136;10.366;2023-02-22T03:39:41;11.37;;;6.47;;
20431;SDS011;10375;49.136;10.366;2023-02-22T03:42:14;10.80;;;6.93;;
20431;SDS011;10375;49.136;10.366;2023-02-22T03:44:46;13.43;;;7.20;;
20431;SDS011;10375;49.136;10.366;2023-02-22T03:47:17;10.83;;;5.90;;
20431;SDS011;10375;49.136;10.366;2023-02-22T03:52:22;13.93;;;7.00;;
20431;SDS011;10375;49.136;10.366;2023-02-22T03:54:50;8.07;;;6.00;;
20431;SDS011;10375;49.136;10.366;2023-02-22T03:57:24;7.77;;;5.53;;
20431;SDS011;10375;49.136;10.366;2023-02-22T03:59:54;8.00;;;5.63;;
20431;SDS011;10375;49.136;10.366;2023-02-22T04:02:21;7.47;;;5.53;;
20431;SDS011;10375;49.136;10.366;2023-02-22T04:04:49;7.17;;;5.50;;
20431;SDS011;10375;49.136;10.366;2023-02-22T04:07:16;12.20;;;6.90;;
20431;SDS011;10375;49.136;10.366;2023-02-22T04:09:43;12.07;;;6.57;;
20431;SDS011;10375;49.136;10.366;2023-02-22T04:12:10;7.93;;;6.13;;
20431;SDS011;10375;49.136;10.366;2023-02-22T04:14:37;9.97;;;6.30;;
20431;SDS011;10375;49.136;10.366;2023-02-22T04:17:04;8.50;;;6.10;;
20431;SDS011;10375;49.136;10.366;2023-02-22T04:19:31;11.53;;;7.37;;
20431;SDS011;10375;49.136;10.366;2023-02-22T04:21:58;15.37;;;8.37;;
20431;SDS011;10375;49.136;10.366;2023-02-22T04:24:25;17.90;;;7.80;;
20431;SDS011;10375;49.136;10.366;2023-02-22T04:26:52;11.67;;;7.70;;
20431;SDS011;10375;49.136;10.366;2023-02-22T04:29:20;11.07;;;7.27;;
20431;SDS011;10375;49.136;10.366;2023-02-22T04:31:47;10.53;;;7.20;;
20431;SDS011;10375;49.136;10.366;2023-02-22T04:34:14;12.37;;;7.30;;
20431;SDS011;10375;49.136;10.366;2023-02-22T04:36:41;15.97;;;8.10;;
20431;SDS011;10375;49.136;10.366;2023-02-22T04:39:09;12.83;;;6.73;;
20431;SDS011;10375;49.136;10.366;2023-02-22T04:41:37;14.70;;;8.40;;
20431;SDS011;10375;49.136;10.366;2023-02-22T04:44:04;8.83;;;6.97;;
20431;SDS011;10375;49.136;10.366;2023-02-22T04:46:31;9.03;;;6.80;;
20431;SDS011;10375;49.136;10.366;2023-02-22T04:48:58;8.87;;;6.83;;
20431;SDS011;10375;49.136;10.366;2023-02-22T04:51:25;11.87;;;8.53;;
20431;SDS011;10375;49.136;10.366;2023-02-22T04:53:52;9.23;;;6.90;;
20431;SDS011;10375;49.136;10.366;2023-02-22T04:56:19;8.67;;;6.90;;
20431;SDS011;10375;49.136;10.366;2023-02-22T04:58:46;10.83;;;6.63;;
20431;SDS011;10375;49.136;10.366;2023-02-22T05:01:13;9.40;;;7.37;;
20431;SDS011;10375;49.136;10.366;2023-02-22T05:03:42;9.87;;;6.73;;
20431;SDS011;10375;49.136;10.366;2023-02-22T05:06:09;10.50;;;8.10;;
20431;SDS011;10375;49.136;10.366;2023-02-22T05:08:37;9.23;;;7.47;;
20431;SDS011;10375;49.136;10.366;2023-02-22T05:11:04;9.33;;;7.10;;
20431;SDS011;10375;49.136;10.366;2023-02-22T05:13:31;9.70;;;6.90;;
20431;SDS011;10375;49.136;10.366;2023-02-22T05:15:58;7.77;;;6.67;;
20431;SDS011;10375;49.136;10.366;2023-02-22T05:18:25;11.13;;;7.20;;
20431;SDS011;10375;49.136;10.366;2023-02-22T05:20:52;12.53;;;8.30;;
20431;SDS011;10375;49.136;10.366;2023-02-22T05:23:19;9.80;;;7.40;;
20431;SDS011;10375;49.136;10.366;2023-02-22T05:25:46;9.77;;;6.80;;
20431;SDS011;10375;49.136;10.366;2023-02-22T05:28:14;14.33;;;6.83;;
20431;SDS011;10375;49.136;10.366;2023-02-22T05:30:42;10.90;;;6.77;;
20431;SDS011;10375;49.136;10.366;2023-02-22T05:33:09;9.50;;;6.70;;
20431;SDS011;10375;49.136;10.366;2023-02-22T05:35:36;10.17;;;6.57;;
20431;SDS011;10375;49.136;10.366;2023-02-22T05:38:03;7.93;;;6.03;;
20431;SDS011;10375;49.136;10.366;2023-02-22T05:40:31;11.37;;;7.07;;
20431;SDS011;10375;49.136;10.366;2023-02-22T05:42:58;11.93;;;7.40;;
20431;SDS011;10375;49.136;10.366;2023-02-22T05:45:27;10.13;;;6.90;;
20431;SDS011;10375;49.136;10.366;2023-02-22T05:47:54;11.23;;;6.67;;
20431;SDS011;10375;49.136;10.366;2023-02-22T05:50:22;11.93;;;6.40;;
20431;SDS011;10375;49.136;10.366;2023-02-22T05:52:49;12.10;;;6.87;;
20431;SDS011;10375;49.136;10.366;2023-02-22T05:55:18;10.63;;;6.47;;
20431;SDS011;10375;49.136;10.366;2023-02-22T05:57:46;10.50;;;6.30;;
20431;SDS011;10375;49.136;10.366;2023-02-22T06:00:19;7.87;;;6.37;;
20431;SDS011;10375;49.136;10.366;2023-02-22T06:02:55;7.37;;;5.93;;
20431;SDS011;10375;49.136;10.366;2023-02-22T06:05:23;7.83;;;5.87;;
20431;SDS011;10375;49.136;10.366;2023-02-22T06:07:50;11.57;;;6.73;;
20431;SDS011;10375;49.136;10.366;2023-02-22T06:10:18;11.17;;;7.00;;
20431;SDS011;10375;49.136;10.366;2023-02-22T06:12:47;9.13;;;6.00;;
20431;SDS011;10375;49.136;10.366;2023-02-22T06:15:14;9.33;;;6.33;;
20431;SDS011;10375;49.136;10.366;2023-02-22T06:17:42;11.20;;;7.07;;
20431;SDS011;10375;49.136;10.366;2023-02-22T06:20:11;8.40;;;5.87;;
20431;SDS011;10375;49.136;10.366;2023-02-22T06:22:40;7.03;;;6.23;;
20431;SDS011;10375;49.136;10.366;2023-02-22T06:25:07;12.67;;;6.73;;
20431;SDS011;10375;49.136;10.366;2023-02-22T06:27:34;15.03;;;6.50;;
20431;SDS011;10375;49.136;10.366;2023-02-22T06:30:02;12.63;;;7.07;;
20431;SDS011;10375;49.136;10.366;2023-02-22T06:32:30;12.17;;;6.70;;
20431;SDS011;10375;49.136;10.366;2023-02-22T06:34:57;12.67;;;6.67;;
20431;SDS011;10375;49.136;10.366;2023-02-22T06:37:24;9.47;;;6.53;;
20431;SDS011;10375;49.136;10.366;2023-02-22T06:39:51;27.47;;;6.97;;
20431;SDS011;10375;49.136;10.366;2023-02-22T06:42:18;10.37;;;7.23;;
20431;SDS011;10375;49.136;10.366;2023-02-22T06:44:45;8.33;;;7.03;;
20431;SDS011;10375;49.136;10.366;2023-02-22T06:47:12;11.53;;;7.07;;
20431;SDS011;10375;49.136;10.366;2023-02-22T06:49:39;9.70;;;6.87;;
20431;SDS011;10375;49.136;10.366;2023-02-22T06:52:06;11.07;;;6.97;;
20431;SDS011;10375;49.136;10.366;2023-02-22T06:54:35;9.57;;;7.13;;
20431;SDS011;10375;49.136;10.366;2023-02-22T06:57:02;9.00;;;6.90;;
20431;SDS011;10375;49.136;10.366;2023-02-22T06:59:29;12.93;;;7.13;;
20431;SDS011;10375;49.136;10.366;2023-02-22T07:01:56;8.87;;;7.10;;
20431;SDS011;10375;49.136;10.366;2023-02-22T07:04:24;14.43;;;7.93;;
20431;SDS011;10375;49.136;10.366;2023-02-22T07:06:51;12.87;;;8.03;;
20431;SDS011;10375;49.136;10.366;2023-02-22T07:09:18;17.83;;;7.77;;
20431;SDS011;10375;49.136;10.366;2023-02-22T07:11:45;11.13;;;8.50;;
20431;SDS011;10375;49.136;10.366;2023-02-22T07:14:15;8.97;;;7.47;;
20431;SDS011;10375;49.136;10.366;2023-02-22T07:16:42;13.30;;;8.20;;
20431;SDS011;10375;49.136;10.366;2023-02-22T07:19:09;17.00;;;10.03;;
20431;SDS011;10375;49.136;10.366;2023-02-22T07:21:36;14.90;;;9.50;;
20431;SDS011;10375;49.136;10.366;2023-02-22T07:24:03;12.73;;;8.37;;
20431;SDS011;10375;49.136;10.366;2023-02-22T07:26:30;11.50;;;8.80;;
20431;SDS011;10375;49.136;10.366;2023-02-22T07:29:05;18.13;;;9.97;;
20431;SDS011;10375;49.136;10.366;2023-02-22T07:31:36;21.03;;;11.60;;
20431;SDS011;10375;49.136;10.366;2023-02-22T07:34:03;15.63;;;10.30;;
20431;SDS011;10375;49.136;10.366;2023-02-22T07:36:30;17.87;;;10.60;;
20431;SDS011;10375;49.136;10.366;2023-02-22T07:38:57;16.87;;;9.93;;
20431;SDS011;10375;49.136;10.366;2023-02-22T07:41:24;11.90;;;9.10;;
20431;SDS011;10375;49.136;10.366;2023-02-22T07:43:51;14.63;;;8.63;;
20431;SDS011;10375;49.136;10.366;2023-02-22T07:46:18;14.33;;;10.53;;
20431;SDS011;10375;49.136;10.366;2023-02-22T07:48:45;17.40;;;11.93;;
20431;SDS011;10375;49.136;10.366;2023-02-22T07:51:14;23.23;;;14.73;;
20431;SDS011;10375;49.136;10.366;2023-02-22T07:53:42;19.40;;;12.47;;
20431;SDS011;10375;49.136;10.366;2023-02-22T07:56:09;28.20;;;15.63;;
20431;SDS011;10375;49.136;10.366;2023-02-22T07:58:36;22.33;;;12.73;;
20431;SDS011;10375;49.136;10.366;2023-02-22T08:01:03;14.90;;;10.10;;
20431;SDS011;10375;49.136;10.366;2023-02-22T08:03:31;14.20;;;9.33;;
20431;SDS011;10375;49.136;10.366;2023-02-22T08:06:02;16.07;;;10.67;;
20431;SDS011;10375;49.136;10.366;2023-02-22T08:08:30;11.63;;;8.40;;
20431;SDS011;10375;49.136;10.366;2023-02-22T08:10:58;14.13;;;9.33;;
20431;SDS011;10375;49.136;10.366;2023-02-22T08:13:25;11.57;;;8.63;;
20431;SDS011;10375;49.136;10.366;2023-02-22T08:15:52;12.27;;;8.57;;
20431;SDS011;10375;49.136;10.366;2023-02-22T08:18:20;14.47;;;8.17;;
20431;SDS011;10375;49.136;10.366;2023-02-22T08:20:48;14.23;;;9.67;;
20431;SDS011;10375;49.136;10.366;2023-02-22T08:23:17;13.50;;;9.13;;
20431;SDS011;10375;49.136;10.366;2023-02-22T08:25:45;17.53;;;10.57;;
20431;SDS011;10375;49.136;10.366;2023-02-22T08:28:14;18.73;;;9.67;;
20431;SDS011;10375;49.136;10.366;2023-02-22T08:30:43;16.17;;;9.43;;
20431;SDS011;10375;49.136;10.366;2023-02-22T08:33:11;17.67;;;10.68;;
20431;SDS011;10375;49.136;10.366;2023-02-22T08:35:41;13.25;;;9.23;;
20431;SDS011;10375;49.136;10.366;2023-02-22T08:38:14;14.50;;;9.65;;
20431;SDS011;10375;49.136;10.366;2023-02-22T08:40:43;10.43;;;8.03;;
20431;SDS011;10375;49.136;10.366;2023-02-22T08:43:10;14.15;;;9.18;;
20431;SDS011;10375;49.136;10.366;2023-02-22T08:45:39;13.93;;;9.02;;
20431;SDS011;10375;49.136;10.366;2023-02-22T08:48:06;13.65;;;9.27;;
20431;SDS011;10375;49.136;10.366;2023-02-22T08:50:33;11.50;;;8.00;;
20431;SDS011;10375;49.136;10.366;2023-02-22T08:53:02;12.82;;;8.70;;
20431;SDS011;10375;49.136;10.366;2023-02-22T08:55:32;11.63;;;9.27;;
20431;SDS011;10375;49.136;10.366;2023-02-22T08:58:00;11.55;;;7.80;;
20431;SDS011;10375;49.136;10.366;2023-02-22T09:00:29;11.52;;;8.13;;
20431;SDS011;10375;49.136;10.366;2023-02-22T09:03:04;12.88;;;8.25;;
20431;SDS011;10375;49.136;10.366;2023-02-22T09:05:33;14.10;;;8.68;;
20431;SDS011;10375;49.136;10.366;2023-02-22T09:08:00;12.82;;;8.57;;
20431;SDS011;10375;49.136;10.366;2023-02-22T09:10:28;9.95;;;8.30;;
20431;SDS011;10375;49.136;10.366;2023-02-22T09:12:56;11.15;;;8.60;;
20431;SDS011;10375;49.136;10.366;2023-02-22T09:15:26;11.18;;;8.27;;
20431;SDS011;10375;49.136;10.366;2023-02-22T09:17:53;10.35;;;7.85;;
20431;SDS011;10375;49.136;10.366;2023-02-22T09:20:21;10.75;;;8.25;;
20431;SDS011;10375;49.136;10.366;2023-02-22T09:22:52;10.00;;;7.47;;
20431;SDS011;10375;49.136;10.366;2023-02-22T09:25:20;14.75;;;7.15;;
20431;SDS011;10375;49.136;10.366;2023-02-22T09:27:48;9.52;;;8.40;;
20431;SDS011;10375;49.136;10.366;2023-02-22T09:30:26;11.40;;;7.32;;
20431;SDS011;10375;49.136;10.366;2023-02-22T09:33:00;11.07;;;7.03;;
20431;SDS011;10375;49.136;10.366;2023-02-22T09:35:29;9.13;;;7.30;;
20431;SDS011;10375;49.136;10.366;2023-02-22T09:37:57;9.90;;;7.28;;
20431;SDS011;10375;49.136;10.366;2023-02-22T09:40:26;10.95;;;7.40;;
20431;SDS011;10375;49.136;10.366;2023-02-22T09:43:01;11.38;;;7.18;;
20431;SDS011;10375;49.136;10.366;2023-02-22T09:51:53;8.60;;;6.68;;
20431;SDS011;10375;49.136;10.366;2023-02-22T09:54:28;35.78;;;8.77;;
20431;SDS011;10375;49.136;10.366;2023-02-22T09:57:15;9.85;;;6.88;;
20431;SDS011;10375;49.136;10.366;2023-02-22T09:59:47;9.70;;;6.88;;
20431;SDS011;10375;49.136;10.366;2023-02-22T10:02:27;9.45;;;6.53;;
20431;SDS011;10375;49.136;10.366;2023-02-22T10:04:59;10.57;;;6.80;;
20431;SDS011;10375;49.136;10.366;2023-02-22T10:07:33;8.80;;;5.72;;
20431;SDS011;10375;49.136;10.366;2023-02-22T10:10:18;10.02;;;5.65;;
20431;SDS011;10375;49.136;10.366;2023-02-22T10:15:25;6.10;;;4.53;;
20431;SDS011;10375;49.136;10.366;2023-02-22T10:24:11;6.80;;;4.90;;
20431;SDS011;10375;49.136;10.366;2023-02-22T10:26:50;7.53;;;4.90;;
20431;SDS011;10375;49.136;10.366;2023-02-22T10:29:30;7.55;;;4.70;;
20431;SDS011;10375;49.136;10.366;2023-02-22T10:32:07;8.25;;;4.95;;
20431;SDS011;10375;49.136;10.366;2023-02-22T10:34:46;9.20;;;5.07;;
20431;SDS011;10375;49.136;10.366;2023-02-22T10:37:23;8.20;;;4.72;;
20431;SDS011;10375;49.136;10.366;2023-02-22T10:39:56;9.15;;;5.20;;
20431;SDS011;10375;49.136;10.366;2023-02-22T10:43:04;7.25;;;4.43;;
20431;SDS011;10375;49.136;10.366;2023-02-22T10:45:33;10.57;;;4.50;;
20431;SDS011;10375;49.136;10.366;2023-02-22T10:48:04;5.68;;;4.22;;
20431;SDS011;10375;49.136;10.366;2023-02-22T10:50:38;6.38;;;4.53;;
20431;SDS011;10375;49.136;10.366;2023-02-22T10:53:08;12.57;;;4.55;;
20431;SDS011;10375;49.136;10.366;2023-02-22T10:55:37;9.18;;;3.83;;
20431;SDS011;10375;49.136;10.366;2023-02-22T10:58:58;8.70;;;4.45;;
20431;SDS011;10375;49.136;10.366;2023-02-22T11:04:06;7.38;;;4.00;;
20431;SDS011;10375;49.136;10.366;2023-02-22T11:06:36;5.35;;;4.40;;
20431;SDS011;10375;49.136;10.366;2023-02-22T11:09:13;10.60;;;4.63;;
20431;SDS011;10375;49.136;10.366;2023-02-22T11:11:49;30.27;;;4.47;;
20431;SDS011;10375;49.136;10.366;2023-02-22T11:14:33;18.35;;;3.90;;
20431;SDS011;10375;49.136;10.366;2023-02-22T11:17:00;4.72;;;3.47;;
20431;SDS011;10375;49.136;10.366;2023-02-22T11:19:33;5.60;;;3.08;;
20431;SDS011;10375;49.136;10.366;2023-02-22T11:27:30;5.93;;;3.35;;
20431;SDS011;10375;49.136;10.366;2023-02-22T11:30:14;3.67;;;2.80;;
20431;SDS011;10375;49.136;10.366;2023-02-22T11:33:29;4.38;;;3.10;;
20431;SDS011;10375;49.136;10.366;2023-02-22T11:35:50;8.77;;;3.15;;
20431;SDS011;10375;49.136;10.366;2023-02-22T11:38:32;4.55;;;2.95;;
20431;SDS011;10375;49.136;10.366;2023-02-22T11:43:30;5.78;;;4.07;;
20431;SDS011;10375;49.136;10.366;2023-02-22T11:46:00;7.03;;;3.53;;
20431;SDS011;10375;49.136;10.366;2023-02-22T11:48:31;5.55;;;3.92;;
20431;SDS011;10375;49.136;10.366;2023-02-22T11:51:05;9.57;;;4.10;;
20431;SDS011;10375;49.136;10.366;2023-02-22T11:59:14;7.78;;;3.17;;
20431;SDS011;10375;49.136;10.366;2023-02-22T12:02:15;4.68;;;2.92;;
20431;SDS011;10375;49.136;10.366;2023-02-22T12:05:09;3.70;;;2.85;;
20431;SDS011;10375;49.136;10.366;2023-02-22T12:21:39;3.50;;;2.60;;
20431;SDS011;10375;49.136;10.366;2023-02-22T12:24:16;4.38;;;3.13;;
20431;SDS011;10375;49.136;10.366;2023-02-22T12:27:04;3.75;;;2.70;;
20431;SDS011;10375;49.136;10.366;2023-02-22T12:29:42;9.45;;;3.17;;
20431;SDS011;10375;49.136;10.366;2023-02-22T12:32:23;5.35;;;3.22;;
20431;SDS011;10375;49.136;10.366;2023-02-22T12:35:14;5.05;;;2.50;;
20431;SDS011;10375;49.136;10.366;2023-02-22T12:43:25;2.97;;;1.80;;
20431;SDS011;10375;49.136;10.366;2023-02-22T12:46:05;3.45;;;3.10;;
20431;SDS011;10375;49.136;10.366;2023-02-22T12:49:07;3.83;;;3.08;;
20431;SDS011;10375;49.136;10.366;2023-02-22T12:54:25;2.63;;;2.08;;
20431;SDS011;10375;49.136;10.366;2023-02-22T12:57:07;5.57;;;2.72;;
20431;SDS011;10375;49.136;10.366;2023-02-22T13:05:13;2.80;;;2.05;;
20431;SDS011;10375;49.136;10.366;2023-02-22T13:13:46;1.90;;;1.63;;
20431;SDS011;10375;49.136;10.366;2023-02-22T13:16:45;2.30;;;2.05;;
20431;SDS011;10375;49.136;10.366;2023-02-22T13:25:03;3.30;;;2.30;;
20431;SDS011;10375;49.136;10.366;2023-02-22T13:30:42;8.07;;;2.50;;
20431;SDS011;10375;49.136;10.366;2023-02-22T13:35:46;5.72;;;3.97;;
20431;SDS011;10375;49.136;10.366;2023-02-22T13:41:15;3.45;;;2.30;;
20431;SDS011;10375;49.136;10.366;2023-02-22T13:43:54;3.38;;;2.25;;
20431;SDS011;10375;49.136;10.366;2023-02-22T13:49:28;4.28;;;2.83;;
20431;SDS011;10375;49.136;10.366;2023-02-22T13:52:11;4.38;;;2.13;;
20431;SDS011;10375;49.136;10.366;2023-02-22T13:54:43;2.85;;;2.15;;
20431;SDS011;10375;49.136;10.366;2023-02-22T14:13:12;8.65;;;3.22;;
20431;SDS011;10375;49.136;10.366;2023-02-22T14:21:05;6.78;;;3.30;;
20431;SDS011;10375;49.136;10.366;2023-02-22T14:23:39;4.85;;;3.30;;
20431;SDS011;10375;49.136;10.366;2023-02-22T14:26:10;7.65;;;3.58;;
20431;SDS011;10375;49.136;10.366;2023-02-22T14:29:00;8.38;;;3.78;;
20431;SDS011;10375;49.136;10.366;2023-02-22T14:31:32;6.45;;;3.50;;
20431;SDS011;10375;49.136;10.366;2023-02-22T14:39:18;4.20;;;3.00;;
20431;SDS011;10375;49.136;10.366;2023-02-22T14:41:56;3.88;;;3.28;;
20431;SDS011;10375;49.136;10.366;2023-02-22T14:44:29;3.03;;;2.63;;
20431;SDS011;10375;49.136;10.366;2023-02-22T14:47:05;2.20;;;1.63;;
20431;SDS011;10375;49.136;10.366;2023-02-22T14:49:40;2.08;;;1.40;;
20431;SDS011;10375;49.136;10.366;2023-02-22T14:52:18;4.05;;;1.17;;
20431;SDS011;10375;49.136;10.366;2023-02-22T14:54:51;1.80;;;0.90;;
20431;SDS011;10375;49.136;10.366;2023-02-22T15:00:17;1.33;;;0.98;;
20431;SDS011;10375;49.136;10.366;2023-02-22T15:02:49;2.00;;;0.80;;
20431;SDS011;10375;49.136;10.366;2023-02-22T15:05:22;3.67;;;1.13;;
20431;SDS011;10375;49.136;10.366;2023-02-22T15:07:57;1.10;;;1.00;;
20431;SDS011;10375;49.136;10.366;2023-02-22T15:10:39;1.15;;;1.05;;
20431;SDS011;10375;49.136;10.366;2023-02-22T15:18:29;1.42;;;1.25;;
20431;SDS011;10375;49.136;10.366;2023-02-22T15:21:14;1.33;;;1.20;;
20431;SDS011;10375;49.136;10.366;2023-02-22T15:29:00;5.25;;;1.85;;
20431;SDS011;10375;49.136;10.366;2023-02-22T15:31:37;3.40;;;1.92;;
20431;SDS011;10375;49.136;10.366;2023-02-22T15:36:36;5.00;;;2.05;;
20431;SDS011;10375;49.136;10.366;2023-02-22T15:39:04;15.95;;;2.25;;
20431;SDS011;10375;49.136;10.366;2023-02-22T15:41:34;2.08;;;1.80;;
20431;SDS011;10375;49.136;10.366;2023-02-22T15:44:03;4.13;;;2.35;;
20431;SDS011;10375;49.136;10.366;2023-02-22T15:46:49;62.83;;;6.03;;
20431;SDS011;10375;49.136;10.366;2023-02-22T15:49:17;13.90;;;2.38;;
20431;SDS011;10375;49.136;10.366;2023-02-22T15:51:46;3.88;;;1.77;;
20431;SDS011;10375;49.136;10.366;2023-02-22T15:54:24;2.65;;;1.55;;
20431;SDS011;10375;49.136;10.366;2023-02-22T15:56:53;1.77;;;1.50;;
20431;SDS011;10375;49.136;10.366;2023-02-22T15:59:22;3.80;;;1.73;;
20431;SDS011;10375;49.136;10.366;2023-02-22T16:01:55;5.50;;;2.17;;
20431;SDS011;10375;49.136;10.366;2023-02-22T16:04:26;12.23;;;2.22;;
20431;SDS011;10375;49.136;10.366;2023-02-22T16:07:07;8.77;;;1.80;;
20431;SDS011;10375;49.136;10.366;2023-02-22T16:09:48;5.20;;;2.03;;
20431;SDS011;10375;49.136;10.366;2023-02-22T16:14:46;249.25;;;17.95;;
20431;SDS011;10375;49.136;10.366;2023-02-22T16:22:39;20.35;;;3.97;;
20431;SDS011;10375;49.136;10.366;2023-02-22T16:27:47;3.08;;;2.20;;
20431;SDS011;10375;49.136;10.366;2023-02-22T16:32:51;3.15;;;2.08;;
20431;SDS011;10375;49.136;10.366;2023-02-22T16:35:25;3.72;;;2.25;;
20431;SDS011;10375;49.136;10.366;2023-02-22T16:38:12;7.53;;;4.10;;
20431;SDS011;10375;49.136;10.366;2023-02-22T16:40:49;7.95;;;2.50;;
20431;SDS011;10375;49.136;10.366;2023-02-22T16:43:29;7.30;;;2.20;;
20431;SDS011;10375;49.136;10.366;2023-02-22T16:45:59;2.55;;;2.25;;
20431;SDS011;10375;49.136;10.366;2023-02-22T16:48:28;4.72;;;2.35;;
20431;SDS011;10375;49.136;10.366;2023-02-22T16:50:58;2.75;;;2.17;;
20431;SDS011;10375;49.136;10.366;2023-02-22T16:53:31;12.43;;;2.30;;
20431;SDS011;10375;49.136;10.366;2023-02-22T16:56:03;5.15;;;3.08;;
20431;SDS011;10375;49.136;10.366;2023-02-22T16:58:32;8.88;;;2.13;;
20431;SDS011;10375;49.136;10.366;2023-02-22T17:01:00;3.00;;;2.03;;
20431;SDS011;10375;49.136;10.366;2023-02-22T17:03:28;8.90;;;2.63;;
20431;SDS011;10375;49.136;10.366;2023-02-22T17:05:55;4.75;;;2.05;;
20431;SDS011;10375;49.136;10.366;2023-02-22T17:08:22;3.70;;;2.42;;
20431;SDS011;10375;49.136;10.366;2023-02-22T17:10:49;7.53;;;3.30;;
20431;SDS011;10375;49.136;10.366;2023-02-22T17:13:21;7.93;;;4.93;;
20431;SDS011;10375;49.136;10.366;2023-02-22T17:15:52;4.57;;;3.15;;
20431;SDS011;10375;49.136;10.366;2023-02-22T17:18:21;4.32;;;3.17;;
20431;SDS011;10375;49.136;10.366;2023-02-22T17:20:50;30.20;;;14.02;;
20431;SDS011;10375;49.136;10.366;2023-02-22T17:23:18;4.07;;;2.33;;
20431;SDS011;10375;49.136;10.366;2023-02-22T17:25:50;4.70;;;2.42;;
20431;SDS011;10375;49.136;10.366;2023-02-22T17:28:22;12.82;;;7.50;;
20431;SDS011;10375;49.136;10.366;2023-02-22T17:30:50;13.63;;;3.38;;
20431;SDS011;10375;49.136;10.366;2023-02-22T17:33:19;5.55;;;3.75;;
20431;SDS011;10375;49.136;10.366;2023-02-22T17:35:52;7.32;;;3.85;;
20431;SDS011;10375;49.136;10.366;2023-02-22T17:38:21;10.32;;;3.55;;
20431;SDS011;10375;49.136;10.366;2023-02-22T17:40:48;6.15;;;3.00;;
20431;SDS011;10375;49.136;10.366;2023-02-22T17:43:20;7.90;;;2.78;;